createdAt,value
2022-10-05T00:00:20.306Z,8.00
2022-10-05T00:02:48.059Z,8.00
2022-10-05T00:05:29.246Z,8.00
2022-10-05T00:08:02.404Z,7.90
2022-10-05T00:10:29.629Z,7.90
2022-10-05T00:12:56.296Z,7.90
2022-10-05T00:15:23.556Z,7.90
2022-10-05T00:17:50.188Z,7.90
2022-10-05T00:20:24.715Z,7.80
2022-10-05T00:22:57.314Z,7.80
2022-10-05T00:25:24.574Z,7.80
2022-10-05T00:27:57.704Z,7.70
2022-10-05T00:30:27.130Z,7.70
2022-10-05T00:32:58.663Z,7.70
2022-10-05T00:35:28.092Z,7.70
2022-10-05T00:37:56.101Z,7.70
2022-10-05T00:40:44.891Z,7.80
2022-10-05T00:43:21.933Z,7.90
2022-10-05T00:46:03.095Z,8.00
2022-10-05T00:48:48.414Z,8.00
2022-10-05T00:51:26.693Z,8.10
2022-10-05T00:54:15.886Z,8.00
2022-10-05T00:56:47.645Z,8.00
2022-10-05T00:59:33.119Z,8.00
2022-10-05T01:02:15.261Z,7.90
2022-10-05T01:04:56.496Z,7.90
2022-10-05T01:07:41.751Z,7.90
2022-10-05T01:10:37.923Z,7.90
2022-10-05T01:13:28.540Z,7.90
2022-10-05T01:16:10.230Z,8.00
2022-10-05T01:18:39.885Z,8.00
2022-10-05T01:21:25.559Z,8.00
2022-10-05T01:24:11.098Z,8.00
2022-10-05T01:26:59.844Z,8.10
2022-10-05T01:29:43.533Z,8.10
2022-10-05T01:32:37.393Z,8.10
2022-10-05T01:35:27.165Z,8.10
2022-10-05T01:38:18.266Z,8.10
2022-10-05T01:41:11.139Z,8.10
2022-10-05T01:43:53.573Z,8.10
2022-10-05T01:47:03.546Z,8.10
2022-10-05T01:49:44.940Z,8.00
2022-10-05T01:52:26.722Z,8.00
2022-10-05T01:55:18.418Z,8.00
2022-10-05T01:57:51.186Z,8.00
2022-10-05T02:00:19.804Z,8.00
2022-10-05T02:02:50.661Z,8.00
2022-10-05T02:05:24.450Z,8.00
2022-10-05T02:07:59.946Z,8.00
2022-10-05T02:10:37.308Z,8.10
2022-10-05T02:13:30.579Z,8.00
2022-10-05T02:16:01.615Z,8.00
2022-10-05T02:18:32.602Z,8.00
2022-10-05T02:21:01.422Z,8.00
2022-10-05T02:23:34.423Z,8.10
2022-10-05T02:26:02.517Z,8.10
2022-10-05T02:28:42.621Z,8.10
2022-10-05T02:31:12.606Z,8.20
2022-10-05T02:33:39.435Z,8.20
2022-10-05T02:36:31.083Z,8.20
2022-10-05T02:39:15.596Z,8.20
2022-10-05T02:42:02.996Z,8.20
2022-10-05T02:44:59.088Z,8.10
2022-10-05T02:47:45.525Z,8.10
2022-10-05T02:50:27.877Z,8.10
2022-10-05T02:53:03.498Z,8.10
2022-10-05T02:55:42.421Z,8.10
2022-10-05T02:58:16.053Z,8.10
2022-10-05T03:00:50.315Z,8.10
2022-10-05T03:03:37.964Z,8.10
2022-10-05T03:06:12.970Z,8.10
2022-10-05T03:09:01.316Z,8.10
2022-10-05T03:11:49.286Z,8.10
2022-10-05T03:14:40.775Z,8.10
2022-10-05T03:17:15.585Z,8.10
2022-10-05T03:20:27.364Z,8.10
2022-10-05T03:22:59.167Z,8.10
2022-10-05T03:26:04.074Z,8.00
2022-10-05T03:29:00.188Z,8.10
2022-10-05T03:31:41.325Z,8.10
2022-10-05T03:34:31.439Z,8.10
2022-10-05T03:37:20.665Z,8.20
2022-10-05T03:39:57.748Z,8.20
2022-10-05T03:42:37.740Z,8.30
2022-10-05T03:45:10.590Z,8.30
2022-10-05T03:47:46.751Z,8.30
2022-10-05T03:50:31.012Z,8.40
2022-10-05T03:53:05.561Z,8.30
2022-10-05T03:55:35.186Z,8.30
2022-10-05T03:58:11.196Z,8.30
2022-10-05T04:00:40.378Z,8.30
2022-10-05T04:03:16.561Z,8.30
2022-10-05T04:05:56.421Z,8.30
2022-10-05T04:08:34.854Z,8.20
2022-10-05T04:11:10.737Z,8.10
2022-10-05T04:13:46.563Z,8.10
2022-10-05T04:16:22.943Z,8.10
2022-10-05T04:19:12.708Z,8.10
2022-10-05T04:22:06.248Z,8.10
2022-10-05T04:24:48.563Z,8.10
2022-10-05T04:27:27.330Z,8.00
2022-10-05T04:30:02.111Z,8.00
2022-10-05T04:32:47.966Z,8.10
2022-10-05T04:35:36.249Z,8.10
2022-10-05T04:38:19.972Z,8.10
2022-10-05T04:41:23.868Z,8.10
2022-10-05T04:44:28.150Z,8.10
2022-10-05T04:47:25.721Z,8.10
2022-10-05T04:50:03.307Z,8.10
2022-10-05T04:52:57.739Z,8.00
2022-10-05T04:55:37.811Z,8.00
2022-10-05T04:58:16.381Z,8.00
2022-10-05T05:01:07.661Z,8.00
2022-10-05T05:03:42.935Z,8.00
2022-10-05T05:06:49.071Z,8.00
2022-10-05T05:09:47.089Z,8.00
2022-10-05T05:12:39.716Z,7.90
2022-10-05T05:15:41.970Z,7.90
2022-10-05T05:18:26.432Z,7.90
2022-10-05T05:21:28.682Z,7.90
2022-10-05T05:24:19.075Z,8.20
2022-10-05T05:27:08.406Z,8.80
2022-10-05T05:30:05.680Z,8.90
2022-10-05T05:32:39.049Z,9.00
2022-10-05T05:35:39.495Z,9.00
2022-10-05T05:38:30.391Z,8.80
2022-10-05T05:41:13.651Z,8.60
2022-10-05T05:43:53.240Z,8.60
2022-10-05T05:46:44.741Z,8.50
2022-10-05T05:49:19.819Z,8.50
2022-10-05T05:52:12.220Z,8.50
2022-10-05T05:54:43.957Z,8.50
2022-10-05T05:57:35.999Z,8.50
2022-10-05T06:00:16.240Z,8.50
2022-10-05T06:02:48.608Z,8.50
2022-10-05T06:05:27.994Z,8.60
2022-10-05T06:07:57.075Z,8.70
2022-10-05T06:10:38.461Z,8.70
2022-10-05T06:13:40.146Z,8.80
2022-10-05T06:16:25.395Z,9.00
2022-10-05T14:19:10.404Z,9.10
2022-10-05T14:21:58.846Z,24.90
2022-10-05T14:24:45.678Z,24.60
2022-10-05T14:27:52.487Z,24.30
2022-10-05T14:30:23.588Z,23.90
2022-10-05T14:33:05.257Z,23.80
2022-10-05T14:35:48.969Z,24.00
2022-10-05T14:48:42.032Z,24.40
2022-10-05T14:51:32.126Z,24.50
2022-10-05T14:54:14.820Z,24.20
2022-10-05T14:57:08.516Z,24.30
2022-10-05T14:59:41.238Z,24.10
2022-10-05T15:02:13.770Z,23.90
2022-10-05T15:04:49.789Z,24.00
2022-10-05T15:07:31.200Z,23.90
2022-10-05T15:10:06.479Z,24.00
2022-10-05T15:12:43.958Z,24.00
2022-10-05T15:15:34.378Z,24.10
2022-10-05T15:18:11.973Z,23.80
2022-10-05T15:21:15.236Z,23.50
2022-10-05T15:23:48.924Z,23.30
2022-10-05T15:26:36.193Z,23.20
2022-10-05T15:29:21.718Z,23.00
2022-10-05T15:31:59.176Z,22.90
2022-10-05T15:35:04.060Z,22.80
2022-10-05T15:38:02.285Z,22.60
2022-10-05T15:40:37.316Z,22.60
2022-10-05T15:43:17.379Z,22.70
2022-10-05T15:45:54.778Z,22.70
2022-10-05T15:48:29.033Z,22.90
2022-10-05T15:51:33.458Z,23.20
2022-10-05T15:54:28.448Z,23.20
2022-10-05T15:57:06.779Z,23.20
2022-10-05T15:59:54.484Z,23.20
2022-10-05T16:02:33.361Z,23.20
2022-10-05T16:05:07.631Z,22.80
2022-10-05T16:08:13.585Z,22.50
2022-10-05T16:10:43.812Z,22.20
2022-10-05T16:13:42.423Z,21.90
2022-10-05T16:16:27.086Z,21.70
2022-10-05T16:19:02.723Z,21.50
2022-10-05T16:21:53.957Z,21.40
2022-10-05T16:24:40.337Z,21.20
2022-10-05T16:27:36.914Z,21.00
2022-10-05T16:30:09.016Z,20.90
2022-10-05T16:32:50.212Z,20.70
2022-10-05T16:35:24.960Z,20.70
2022-10-05T16:37:57.432Z,20.60
2022-10-05T16:40:35.665Z,20.40
2022-10-05T16:43:21.582Z,20.30
2022-10-05T16:46:01.803Z,20.20
2022-10-05T16:48:49.662Z,20.00
2022-10-05T16:51:42.026Z,19.90
2022-10-05T16:54:17.968Z,19.70
2022-10-05T16:56:53.906Z,19.60
2022-10-05T16:59:54.348Z,19.40
2022-10-05T17:02:39.650Z,19.30
2022-10-05T17:05:38.537Z,19.10
2022-10-05T17:08:30.178Z,18.90
2022-10-05T17:11:04.229Z,18.80
2022-10-05T17:13:56.095Z,18.60
2022-10-05T17:16:28.649Z,18.50
2022-10-05T17:19:22.219Z,18.40
2022-10-05T17:22:11.576Z,18.20
2022-10-05T17:25:05.903Z,18.10
2022-10-05T17:27:52.115Z,18.00
2022-10-05T17:30:21.889Z,18.00
2022-10-05T17:33:04.580Z,17.90
2022-10-05T17:35:54.308Z,17.70
2022-10-05T17:38:35.880Z,17.60
2022-10-05T17:41:19.290Z,17.40
2022-10-05T17:44:19.067Z,17.30
2022-10-05T17:47:00.546Z,17.30
2022-10-05T17:49:47.807Z,17.20
2022-10-05T17:52:46.651Z,17.10
2022-10-05T17:55:33.953Z,17.10
2022-10-05T17:58:23.765Z,17.10
2022-10-05T18:01:00.676Z,17.00
2022-10-05T18:03:40.624Z,17.00
2022-10-05T18:06:26.048Z,16.90
2022-10-05T18:09:22.598Z,16.80
2022-10-05T18:12:07.926Z,16.80
2022-10-05T18:15:14.131Z,16.70
2022-10-05T18:17:51.364Z,16.60
2022-10-05T18:20:24.063Z,16.50
2022-10-05T18:22:53.043Z,16.40
2022-10-05T18:25:29.299Z,16.40
2022-10-05T18:28:34.624Z,16.30
2022-10-05T18:31:33.076Z,16.30
2022-10-05T18:34:14.756Z,16.20
2022-10-05T18:36:58.873Z,16.20
2022-10-05T18:39:34.023Z,16.20
2022-10-05T18:42:27.536Z,16.10
2022-10-05T18:45:26.136Z,16.10
2022-10-05T18:48:14.988Z,16.00
2022-10-05T18:50:47.638Z,16.00
2022-10-05T18:53:35.855Z,16.00
2022-10-05T18:56:17.960Z,15.90
2022-10-05T18:58:57.148Z,15.80
2022-10-05T19:01:53.907Z,15.80
2022-10-05T19:04:47.352Z,15.70
2022-10-05T19:07:45.306Z,15.60
2022-10-05T19:10:25.243Z,15.50
2022-10-05T19:13:19.819Z,15.30
2022-10-05T19:16:09.513Z,15.20
2022-10-05T19:18:43.007Z,15.20
2022-10-05T19:21:25.098Z,15.10
2022-10-05T19:23:57.619Z,15.00
2022-10-05T19:27:00.953Z,15.00
2022-10-05T19:29:36.485Z,14.90
2022-10-05T19:32:46.505Z,14.90
2022-10-05T19:35:42.119Z,14.90
2022-10-05T19:38:15.336Z,14.90
2022-10-05T19:41:00.925Z,14.90
2022-10-05T19:43:55.710Z,14.90
2022-10-05T19:46:53.551Z,14.90
2022-10-05T19:49:43.451Z,14.80
2022-10-05T19:52:22.124Z,14.80
2022-10-05T19:55:15.052Z,14.80
2022-10-05T19:57:52.595Z,14.80
2022-10-05T20:00:22.349Z,14.80
2022-10-05T20:02:50.816Z,14.80
2022-10-05T20:05:18.508Z,14.70
2022-10-05T20:07:45.335Z,14.60
2022-10-05T20:10:22.366Z,14.50
2022-10-05T20:12:55.793Z,14.50
2022-10-05T20:15:55.061Z,14.40
2022-10-05T20:18:56.656Z,14.40
2022-10-05T20:21:46.004Z,14.30
2022-10-05T20:24:25.878Z,14.20
2022-10-05T20:27:06.901Z,14.10
2022-10-05T20:29:41.157Z,14.00
2022-10-05T20:32:17.596Z,14.00
2022-10-05T20:34:46.761Z,13.90
2022-10-05T20:37:17.990Z,13.90
2022-10-05T20:39:45.041Z,13.80
2022-10-05T20:42:11.951Z,13.70
2022-10-05T20:44:38.654Z,13.70
2022-10-05T20:47:08.322Z,13.60
2022-10-05T20:49:36.401Z,13.60
2022-10-05T20:52:04.678Z,13.60
2022-10-05T20:54:31.370Z,13.50
2022-10-05T20:56:58.052Z,13.50
2022-10-05T20:59:25.535Z,13.40
2022-10-05T21:01:52.518Z,13.40
2022-10-05T21:04:22.173Z,13.30
2022-10-05T21:06:49.279Z,13.30
2022-10-05T21:09:19.416Z,13.30
2022-10-05T21:11:47.964Z,13.40
2022-10-05T21:14:14.822Z,13.50
2022-10-05T21:16:42.843Z,13.60
2022-10-05T21:19:12.447Z,13.70
2022-10-05T21:21:40.649Z,13.80
2022-10-05T21:24:07.792Z,13.90
2022-10-05T21:26:34.689Z,13.90
2022-10-05T21:29:02.274Z,13.90
2022-10-05T21:31:29.789Z,14.00
2022-10-05T21:33:56.691Z,14.00
2022-10-05T21:36:24.733Z,14.10
2022-10-05T21:38:53.269Z,14.10
2022-10-05T21:41:20.948Z,14.20
2022-10-05T21:43:48.154Z,14.20
2022-10-05T21:46:21.834Z,14.10
2022-10-05T21:48:49.782Z,14.20
2022-10-05T21:51:18.772Z,14.20
2022-10-05T21:54:02.605Z,14.20
2022-10-05T21:56:35.417Z,14.20
2022-10-05T21:59:04.453Z,14.20
2022-10-05T22:01:31.250Z,14.20
2022-10-05T22:03:58.098Z,14.10
2022-10-05T22:06:24.770Z,14.10
2022-10-05T22:08:51.336Z,14.10
2022-10-05T22:11:18.445Z,14.00
2022-10-05T22:13:50.712Z,13.90
2022-10-05T22:16:20.644Z,13.90
2022-10-05T22:18:48.732Z,13.90
2022-10-05T22:21:16.083Z,13.80
2022-10-05T22:23:44.745Z,13.80
2022-10-05T22:26:13.901Z,13.80
2022-10-05T22:28:41.062Z,13.80
2022-10-05T22:31:09.513Z,13.80
2022-10-05T22:33:37.122Z,13.70
2022-10-05T22:36:05.587Z,13.70
2022-10-05T22:38:32.496Z,13.60
2022-10-05T22:40:59.130Z,13.60
2022-10-05T22:43:26.968Z,13.60
2022-10-05T22:45:54.279Z,13.50
2022-10-05T22:48:21.066Z,13.50
2022-10-05T22:50:47.998Z,13.50
2022-10-05T22:53:15.015Z,13.50
2022-10-05T22:55:41.661Z,13.50
2022-10-05T22:58:08.265Z,13.40
2022-10-05T23:00:56.858Z,13.30
2022-10-05T23:03:21.586Z,13.30
2022-10-05T23:05:48.198Z,13.30
2022-10-05T23:08:15.980Z,13.30
2022-10-05T23:10:43.062Z,13.30
2022-10-05T23:13:09.628Z,13.40
2022-10-05T23:15:36.303Z,13.40
2022-10-05T23:18:02.915Z,13.40
2022-10-05T23:20:29.546Z,13.30
2022-10-05T23:22:56.301Z,13.30
2022-10-05T23:25:22.870Z,13.20
2022-10-05T23:27:49.507Z,13.20
2022-10-05T23:30:16.142Z,13.20
2022-10-05T23:32:44.374Z,13.10
2022-10-05T23:35:12.488Z,13.20
2022-10-05T23:37:41.399Z,13.10
2022-10-05T23:40:11.687Z,13.10
2022-10-05T23:42:39.739Z,13.10
2022-10-05T23:45:07.766Z,13.10
2022-10-05T23:47:34.382Z,13.10
2022-10-05T23:50:01.012Z,13.00
2022-10-05T23:52:27.730Z,13.00
2022-10-05T23:54:54.376Z,13.00
2022-10-05T23:57:21.063Z,12.90
2022-10-05T23:59:50.177Z,12.80
